createdAt,value
2017-03-23T00:00:07.792Z,71.13
2017-03-23T00:01:08.472Z,71.23
2017-03-23T00:02:08.862Z,71.13
2017-03-23T00:03:09.396Z,71.34
2017-03-23T00:04:09.955Z,71.36
2017-03-23T00:05:10.467Z,71.39
2017-03-23T00:06:10.997Z,71.52
2017-03-23T00:07:11.539Z,71.26
2017-03-23T00:08:12.068Z,71.52
2017-03-23T00:09:12.602Z,71.78
2017-03-23T00:10:13.142Z,71.91
2017-03-23T00:11:13.675Z,71.65
2017-03-23T00:12:14.203Z,71.83
2017-03-23T00:13:14.727Z,71.99
2017-03-23T00:14:15.260Z,72.17
2017-03-23T00:15:15.804Z,72.07
2017-03-23T00:16:16.336Z,71.42
2017-03-23T00:17:16.864Z,71.52
2017-03-23T00:18:17.393Z,71.67
2017-03-23T00:19:18.073Z,71.91
2017-03-23T00:20:18.457Z,71.78
2017-03-23T00:21:18.990Z,72.04
2017-03-23T00:22:19.513Z,72.07
2017-03-23T00:23:20.053Z,72.01
2017-03-23T00:24:20.585Z,72.36
2017-03-23T00:25:21.127Z,72.20
2017-03-23T00:26:21.655Z,72.33
2017-03-23T00:27:22.475Z,72.46
2017-03-23T00:28:22.709Z,72.38
2017-03-23T00:29:23.248Z,72.53
2017-03-23T00:30:23.771Z,72.46
2017-03-23T00:31:24.454Z,72.38
2017-03-23T00:32:24.844Z,72.53
2017-03-23T00:33:25.379Z,72.20
2017-03-23T00:34:25.904Z,72.36
2017-03-23T00:35:26.581Z,72.25
2017-03-23T00:36:26.967Z,72.28
2017-03-23T00:37:27.498Z,71.89
2017-03-23T00:38:28.048Z,72.17
2017-03-23T00:39:28.562Z,72.36
2017-03-23T00:40:29.087Z,72.14
2017-03-23T00:41:29.627Z,72.22
2017-03-23T00:42:30.154Z,72.48
2017-03-23T00:43:30.692Z,72.46
2017-03-23T00:44:31.219Z,72.28
2017-03-23T00:45:31.758Z,72.75
2017-03-23T00:46:32.287Z,72.80
2017-03-23T00:47:32.828Z,72.93
2017-03-23T00:48:33.357Z,72.95
2017-03-23T00:49:33.904Z,72.90
2017-03-23T00:50:34.432Z,72.72
2017-03-23T00:51:35.010Z,72.80
2017-03-23T00:52:35.503Z,73.03
2017-03-23T00:53:36.049Z,72.72
2017-03-23T00:54:36.569Z,72.64
2017-03-23T00:55:37.103Z,71.89
2017-03-23T00:56:37.639Z,71.81
2017-03-23T00:57:38.177Z,71.86
2017-03-23T00:58:38.701Z,71.94
2017-03-23T00:59:39.235Z,71.96
2017-03-23T01:00:39.759Z,71.99
2017-03-23T01:01:40.309Z,72.36
2017-03-23T01:02:40.824Z,72.09
2017-03-23T01:03:41.365Z,72.09
2017-03-23T01:04:41.889Z,72.04
2017-03-23T01:05:42.427Z,73.53
2017-03-23T01:06:43.102Z,73.30
2017-03-23T01:07:43.495Z,73.74
2017-03-23T01:08:44.024Z,75.29
2017-03-23T01:09:44.702Z,75.39
2017-03-23T01:10:45.087Z,75.21
2017-03-23T01:11:45.625Z,74.71
2017-03-23T01:12:46.151Z,74.92
2017-03-23T01:13:46.681Z,73.30
2017-03-23T01:14:47.381Z,73.74
2017-03-23T01:15:47.749Z,73.95
2017-03-23T01:16:48.278Z,74.21
2017-03-23T01:17:48.817Z,74.66
2017-03-23T01:18:49.342Z,73.97
2017-03-23T01:19:49.878Z,73.82
2017-03-23T01:20:50.403Z,73.95
2017-03-23T01:21:50.941Z,73.89
2017-03-23T01:22:51.467Z,74.11
2017-03-23T01:23:52.010Z,74.11
2017-03-23T01:24:52.539Z,73.87
2017-03-23T01:25:53.076Z,73.95
2017-03-23T01:26:53.605Z,74.21
2017-03-23T01:27:54.145Z,74.03
2017-03-23T01:28:54.674Z,73.48
2017-03-23T01:29:55.214Z,74.00
2017-03-23T01:30:55.734Z,73.87
2017-03-23T01:31:56.284Z,72.98
2017-03-23T01:32:56.813Z,73.87
2017-03-23T01:33:57.349Z,73.22
2017-03-23T01:34:57.876Z,73.32
2017-03-23T01:35:58.553Z,73.58
2017-03-23T01:36:58.941Z,73.22
2017-03-23T01:37:59.661Z,73.45
2017-03-23T01:39:00.009Z,73.40
2017-03-23T01:40:00.547Z,73.24
2017-03-23T01:41:01.073Z,73.35
2017-03-23T01:42:01.617Z,73.95
2017-03-23T01:43:02.148Z,73.42
2017-03-23T01:44:02.681Z,73.79
2017-03-23T01:45:03.207Z,73.63
2017-03-23T01:46:03.745Z,73.50
2017-03-23T01:47:04.271Z,73.58
2017-03-23T01:48:04.810Z,73.82
2017-03-23T01:49:05.337Z,73.66
2017-03-23T01:50:05.879Z,73.85
2017-03-23T01:51:06.401Z,73.74
2017-03-23T01:52:06.948Z,73.77
2017-03-23T01:53:07.471Z,73.63
2017-03-23T01:54:08.013Z,73.77
2017-03-23T01:55:08.537Z,73.63
2017-03-23T01:56:09.078Z,73.79
2017-03-23T01:57:09.596Z,73.87
2017-03-23T01:58:10.133Z,73.95
2017-03-23T01:59:10.666Z,73.74
2017-03-23T02:00:11.196Z,73.66
2017-03-23T02:01:11.727Z,73.63
2017-03-23T02:02:12.270Z,73.71
2017-03-23T02:03:12.788Z,73.93
2017-03-23T02:04:13.329Z,73.69
2017-03-23T02:05:13.853Z,73.87
2017-03-23T02:06:14.398Z,73.53
2017-03-23T02:07:14.923Z,74.11
2017-03-23T02:08:15.464Z,74.05
2017-03-23T02:09:15.991Z,73.69
2017-03-23T02:10:16.529Z,73.69
2017-03-23T02:11:17.053Z,73.79
2017-03-23T02:12:17.600Z,73.89
2017-03-23T02:13:18.148Z,73.95
2017-03-23T02:14:18.697Z,74.21
2017-03-23T02:15:19.199Z,74.03
2017-03-23T02:16:19.742Z,73.82
2017-03-23T02:17:20.272Z,73.87
2017-03-23T02:18:20.858Z,74.24
2017-03-23T02:19:21.336Z,74.50
2017-03-23T02:20:21.869Z,74.08
2017-03-23T02:21:22.396Z,74.24
2017-03-23T02:22:22.927Z,74.18
2017-03-23T02:23:23.464Z,74.40
2017-03-23T02:24:24.001Z,74.26
2017-03-23T02:25:24.532Z,73.97
2017-03-23T02:26:25.070Z,74.32
2017-03-23T02:27:25.593Z,74.32
2017-03-23T02:28:26.127Z,74.36
2017-03-23T02:29:26.660Z,74.58
2017-03-23T02:30:27.189Z,74.42
2017-03-23T02:31:27.726Z,74.52
2017-03-23T02:32:28.407Z,74.71
2017-03-23T02:33:28.790Z,74.68
2017-03-23T02:34:29.335Z,74.26
2017-03-23T02:35:29.865Z,74.44
2017-03-23T02:36:30.539Z,74.40
2017-03-23T02:37:30.922Z,74.63
2017-03-23T02:38:31.455Z,74.44
2017-03-23T02:39:31.996Z,74.34
2017-03-23T02:40:32.530Z,74.26
2017-03-23T02:41:33.053Z,74.16
2017-03-23T02:42:33.606Z,74.03
2017-03-23T02:43:34.121Z,74.21
2017-03-23T02:44:34.661Z,74.13
2017-03-23T02:45:35.189Z,74.24
2017-03-23T02:46:35.730Z,74.24
2017-03-23T02:47:36.254Z,74.47
2017-03-23T02:48:36.796Z,74.21
2017-03-23T02:49:37.465Z,74.40
2017-03-23T02:50:38.005Z,74.63
2017-03-23T02:51:38.388Z,74.16
2017-03-23T02:52:38.929Z,74.58
2017-03-23T02:53:39.466Z,74.52
2017-03-23T02:54:40.016Z,74.58
2017-03-23T02:55:40.534Z,74.50
2017-03-23T02:56:41.071Z,74.71
2017-03-23T02:57:41.606Z,74.79
2017-03-23T02:58:42.140Z,74.99
2017-03-23T02:59:42.668Z,74.89
2017-03-23T03:00:43.214Z,74.89
2017-03-23T03:01:43.736Z,74.92
2017-03-23T03:02:44.271Z,74.92
2017-03-23T03:03:44.800Z,74.97
2017-03-23T03:04:45.348Z,74.99
2017-03-23T03:05:45.869Z,74.97
2017-03-23T03:06:46.401Z,75.05
2017-03-23T03:07:46.934Z,74.84
2017-03-23T03:08:47.472Z,75.21
2017-03-23T03:09:48.000Z,75.39
2017-03-23T03:10:48.534Z,75.57
2017-03-23T03:11:49.069Z,75.47
2017-03-23T03:12:49.603Z,74.84
2017-03-23T03:13:50.131Z,75.26
2017-03-23T03:14:50.686Z,75.07
2017-03-23T03:15:51.196Z,74.92
2017-03-23T03:16:51.733Z,75.76
2017-03-23T03:17:52.262Z,75.26
2017-03-23T03:18:52.802Z,75.23
2017-03-23T03:19:53.325Z,74.97
2017-03-23T03:20:53.864Z,75.34
2017-03-23T03:21:54.392Z,75.41
2017-03-23T03:22:54.932Z,74.79
2017-03-23T03:23:55.454Z,74.71
2017-03-23T03:24:55.986Z,74.79
2017-03-23T03:25:56.526Z,75.18
2017-03-23T03:26:57.051Z,75.94
2017-03-23T03:27:57.591Z,75.44
2017-03-23T03:28:58.132Z,75.44
2017-03-23T03:29:58.658Z,75.10
2017-03-23T03:30:59.186Z,75.41
2017-03-23T03:31:59.724Z,75.05
2017-03-23T03:33:00.256Z,74.94
2017-03-23T03:34:00.789Z,75.05
2017-03-23T03:35:01.331Z,75.23
2017-03-23T03:36:01.861Z,76.18
2017-03-23T03:37:02.397Z,75.15
2017-03-23T03:38:02.932Z,75.34
2017-03-23T03:39:03.466Z,75.76
2017-03-23T03:40:04.005Z,75.96
2017-03-23T03:41:04.533Z,76.10
2017-03-23T03:42:05.067Z,76.12
2017-03-23T03:43:05.596Z,75.76
2017-03-23T03:44:06.131Z,75.86
2017-03-23T03:45:06.672Z,75.99
2017-03-23T03:46:07.192Z,76.07
2017-03-23T03:47:07.735Z,76.26
2017-03-23T03:48:08.260Z,75.81
2017-03-23T03:49:08.790Z,75.94
2017-03-23T03:50:09.330Z,76.02
2017-03-23T03:51:09.850Z,76.31
2017-03-23T03:52:10.381Z,76.12
2017-03-23T03:53:10.916Z,76.12
2017-03-23T03:54:11.451Z,75.89
2017-03-23T03:55:12.134Z,76.02
2017-03-23T03:56:12.522Z,76.28
2017-03-23T03:57:13.046Z,76.10
2017-03-23T03:58:13.580Z,76.02
2017-03-23T03:59:14.114Z,76.15
2017-03-23T04:00:14.650Z,76.02
2017-03-23T04:01:15.178Z,75.76
2017-03-23T04:02:15.714Z,76.28
2017-03-23T04:03:16.247Z,75.76
2017-03-23T04:04:16.775Z,75.86
2017-03-23T04:05:17.310Z,76.04
2017-03-23T04:06:17.847Z,76.20
2017-03-23T04:07:18.523Z,76.36
2017-03-23T04:08:18.905Z,76.62
2017-03-23T04:09:19.441Z,76.60
2017-03-23T04:10:19.969Z,76.26
2017-03-23T04:11:20.506Z,76.67
2017-03-23T04:12:21.031Z,75.96
2017-03-23T04:13:21.576Z,76.28
2017-03-23T04:14:22.102Z,76.39
2017-03-23T04:15:22.651Z,76.75
2017-03-23T04:16:23.171Z,76.75
2017-03-23T04:17:23.710Z,76.52
2017-03-23T04:18:24.245Z,76.65
2017-03-23T04:19:24.783Z,76.31
2017-03-23T04:20:25.322Z,76.89
2017-03-23T04:21:25.874Z,76.78
2017-03-23T04:22:26.394Z,76.73
2017-03-23T04:23:26.920Z,76.57
2017-03-23T04:24:27.456Z,76.52
2017-03-23T04:25:27.999Z,76.81
2017-03-23T04:26:28.518Z,76.81
2017-03-23T04:27:29.052Z,76.99
2017-03-23T04:28:29.582Z,76.91
2017-03-23T04:29:30.110Z,77.12
2017-03-23T04:30:30.642Z,77.15
2017-03-23T04:31:31.171Z,77.39
2017-03-23T04:32:31.707Z,77.44
2017-03-23T04:33:32.247Z,77.67
2017-03-23T04:34:32.773Z,77.78
2017-03-23T04:35:33.305Z,77.78
2017-03-23T04:36:33.842Z,77.89
2017-03-23T04:37:34.365Z,77.70
2017-03-23T04:38:34.904Z,77.62
2017-03-23T04:39:35.590Z,77.67
2017-03-23T04:40:35.970Z,77.86
2017-03-23T04:41:36.652Z,78.07
2017-03-23T04:42:37.040Z,78.07
2017-03-23T04:43:37.567Z,78.23
2017-03-23T04:44:38.102Z,78.52
2017-03-23T04:45:38.635Z,78.65
2017-03-23T04:46:39.163Z,78.67
2017-03-23T04:47:39.719Z,78.86
2017-03-23T04:48:40.232Z,78.86
2017-03-23T04:49:40.942Z,78.65
2017-03-23T04:50:41.296Z,78.44
2017-03-23T04:51:41.831Z,78.62
2017-03-23T04:52:42.360Z,78.47
2017-03-23T04:53:42.893Z,78.59
2017-03-23T04:54:43.429Z,78.62
2017-03-23T04:55:43.964Z,78.86
2017-03-23T04:56:44.643Z,78.94
2017-03-23T04:57:45.029Z,78.78
2017-03-23T04:58:45.565Z,78.99
2017-03-23T04:59:46.102Z,79.15
2017-03-23T05:00:46.646Z,79.17
2017-03-23T05:01:47.187Z,79.31
2017-03-23T05:02:47.708Z,79.33
2017-03-23T05:03:48.247Z,79.55
2017-03-23T05:04:48.781Z,79.55
2017-03-23T05:05:49.312Z,79.63
2017-03-23T05:06:49.845Z,79.73
2017-03-23T05:07:50.524Z,79.81
2017-03-23T05:08:50.912Z,79.99
2017-03-23T05:09:51.443Z,79.99
2017-03-23T05:10:51.980Z,79.97
2017-03-23T05:11:52.510Z,79.97
2017-03-23T05:12:53.042Z,80.02
2017-03-23T05:13:53.581Z,79.81
2017-03-23T05:14:54.109Z,80.26
2017-03-23T05:15:54.659Z,80.31
2017-03-23T05:16:55.177Z,80.13
2017-03-23T05:17:55.857Z,80.21
2017-03-23T05:18:56.242Z,80.39
2017-03-23T05:19:56.785Z,80.21
2017-03-23T05:20:57.308Z,80.21
2017-03-23T05:21:57.840Z,80.29
2017-03-23T05:22:58.373Z,80.02
2017-03-23T05:23:58.906Z,80.23
2017-03-23T05:24:59.437Z,79.89
2017-03-23T05:25:59.970Z,79.89
2017-03-23T05:27:00.503Z,79.79
2017-03-23T05:28:01.036Z,79.79
2017-03-23T05:29:01.568Z,79.75
2017-03-23T05:30:02.248Z,79.75
2017-03-23T05:31:02.634Z,80.10
2017-03-23T05:32:03.164Z,80.29
2017-03-23T05:33:03.698Z,80.10
2017-03-23T05:34:04.224Z,80.05
2017-03-23T05:35:04.760Z,79.49
2017-03-23T05:36:05.287Z,79.86
2017-03-23T05:37:05.823Z,80.23
2017-03-23T05:38:06.509Z,79.94
2017-03-23T05:39:06.896Z,79.97
2017-03-23T05:40:07.582Z,79.44
2017-03-23T05:41:07.972Z,79.73
2017-03-23T05:42:08.509Z,80.10
2017-03-23T05:43:09.047Z,79.39
2017-03-23T05:44:09.724Z,79.63
2017-03-23T05:45:10.109Z,79.36
2017-03-23T05:46:10.646Z,79.44
2017-03-23T05:47:11.319Z,79.33
2017-03-23T05:48:11.706Z,79.55
2017-03-23T05:49:12.240Z,79.10
2017-03-23T05:50:12.778Z,79.23
2017-03-23T05:51:13.304Z,79.10
2017-03-23T05:52:13.840Z,78.65
2017-03-23T05:53:14.516Z,79.17
2017-03-23T05:54:14.905Z,79.39
2017-03-23T05:55:15.437Z,78.81
2017-03-23T05:56:15.968Z,78.86
2017-03-23T05:57:16.503Z,78.57
2017-03-23T05:58:17.049Z,78.73
2017-03-23T05:59:17.572Z,79.17
2017-03-23T06:00:18.105Z,79.02
2017-03-23T06:01:18.637Z,78.59
2017-03-23T06:02:19.178Z,78.67
2017-03-23T06:03:19.703Z,78.78
2017-03-23T06:04:20.242Z,78.97
2017-03-23T06:05:20.920Z,79.05
2017-03-23T06:06:21.303Z,78.91
2017-03-23T06:07:21.845Z,78.81
2017-03-23T06:08:22.521Z,78.99
2017-03-23T06:09:22.907Z,78.97
2017-03-23T06:10:23.588Z,78.70
2017-03-23T06:11:23.970Z,78.49
2017-03-23T06:12:24.504Z,78.70
2017-03-23T06:13:25.038Z,78.07
2017-03-23T06:14:25.580Z,78.12
2017-03-23T06:15:26.105Z,78.20
2017-03-23T06:16:26.636Z,78.78
2017-03-23T06:17:27.165Z,78.25
2017-03-23T06:18:27.697Z,77.04
2017-03-23T06:19:28.234Z,77.41
2017-03-23T06:20:28.772Z,77.62
2017-03-23T06:21:29.308Z,77.31
2017-03-23T06:22:29.847Z,77.75
2017-03-23T06:23:30.382Z,76.54
2017-03-23T06:24:30.910Z,77.07
2017-03-23T06:25:31.456Z,76.91
2017-03-23T06:26:31.979Z,77.20
2017-03-23T06:27:32.510Z,77.28
2017-03-23T06:28:33.043Z,77.17
2017-03-23T06:29:33.578Z,76.86
2017-03-23T06:30:34.111Z,76.99
2017-03-23T06:31:34.641Z,75.99
2017-03-23T06:32:35.173Z,76.60
2017-03-23T06:33:35.706Z,76.26
2017-03-23T06:34:36.233Z,76.07
2017-03-23T06:35:36.772Z,75.89
2017-03-23T06:36:37.461Z,75.34
2017-03-23T06:37:37.841Z,76.18
2017-03-23T06:38:38.382Z,75.55
2017-03-23T06:39:38.906Z,74.97
2017-03-23T06:40:39.443Z,75.37
2017-03-23T06:41:39.971Z,75.29
2017-03-23T06:42:40.504Z,75.39
2017-03-23T06:43:41.035Z,75.10
2017-03-23T06:44:41.572Z,75.07
2017-03-23T06:45:42.119Z,76.26
2017-03-23T06:46:42.647Z,75.07
2017-03-23T06:47:43.172Z,75.15
2017-03-23T06:48:43.704Z,75.76
2017-03-23T06:49:44.240Z,75.47
2017-03-23T06:50:44.770Z,75.70
2017-03-23T06:51:45.306Z,75.89
2017-03-23T06:52:45.835Z,74.97
2017-03-23T06:53:46.367Z,75.07
2017-03-23T06:54:46.905Z,75.44
2017-03-23T06:55:47.437Z,75.02
2017-03-23T06:56:47.982Z,75.86
2017-03-23T06:57:48.504Z,75.76
2017-03-23T06:58:49.040Z,75.26
2017-03-23T06:59:49.577Z,74.81
2017-03-23T07:00:50.117Z,74.58
2017-03-23T07:01:50.649Z,75.62
2017-03-23T07:02:51.186Z,75.76
2017-03-23T07:03:51.723Z,75.89
2017-03-23T07:04:52.256Z,75.18
2017-03-23T07:05:52.793Z,75.60
2017-03-23T07:06:53.327Z,76.97
2017-03-23T07:07:53.856Z,75.94
2017-03-23T07:08:54.386Z,74.68
2017-03-23T07:09:54.921Z,74.81
2017-03-23T07:10:55.454Z,74.81
2017-03-23T07:11:55.989Z,73.32
2017-03-23T07:12:56.519Z,73.95
2017-03-23T07:13:57.056Z,73.71
2017-03-23T07:14:57.600Z,74.94
2017-03-23T07:15:58.121Z,73.89
2017-03-23T07:16:58.660Z,73.50
2017-03-23T07:17:59.207Z,73.16
2017-03-23T07:18:59.725Z,74.97
2017-03-23T07:20:00.247Z,73.22
2017-03-23T07:21:00.794Z,72.85
2017-03-23T07:22:01.317Z,72.12
2017-03-23T07:23:01.857Z,71.62
2017-03-23T07:24:02.382Z,71.49
2017-03-23T07:25:02.923Z,71.78
2017-03-23T07:26:03.446Z,72.48
2017-03-23T07:27:03.983Z,71.86
2017-03-23T07:28:04.510Z,71.07
2017-03-23T07:29:05.044Z,70.74
2017-03-23T07:30:05.579Z,71.49
2017-03-23T07:31:06.116Z,71.83
2017-03-23T07:32:06.647Z,71.26
2017-03-23T07:33:07.177Z,70.87
2017-03-23T07:34:07.710Z,71.49
2017-03-23T07:35:08.239Z,71.73
2017-03-23T07:36:08.772Z,71.21
2017-03-23T07:37:09.307Z,71.28
2017-03-23T07:38:09.841Z,72.14
2017-03-23T07:39:10.376Z,71.34
2017-03-23T07:40:10.911Z,71.91
2017-03-23T07:41:11.442Z,72.77
2017-03-23T07:42:11.981Z,71.44
2017-03-23T07:43:12.514Z,71.52
2017-03-23T07:44:13.050Z,72.04
2017-03-23T07:45:13.590Z,70.29
2017-03-23T07:46:14.129Z,69.98
2017-03-23T07:47:14.662Z,70.11
2017-03-23T07:48:15.199Z,69.96
2017-03-23T07:49:17.243Z,68.84
2017-03-23T07:50:16.262Z,70.11
2017-03-23T07:51:16.794Z,70.71
2017-03-23T07:52:17.323Z,68.68
2017-03-23T07:53:17.859Z,67.52
2017-03-23T07:54:18.390Z,67.96
2017-03-23T07:55:19.071Z,69.18
2017-03-23T07:56:19.600Z,68.87
2017-03-23T07:57:20.008Z,67.44
2017-03-23T07:58:20.521Z,67.31
2017-03-23T07:59:21.047Z,68.04
2017-03-23T08:00:21.583Z,66.66
2017-03-23T08:01:22.113Z,68.45
2017-03-23T08:02:22.643Z,66.35
2017-03-23T08:03:23.172Z,67.28
2017-03-23T08:04:23.708Z,65.91
2017-03-23T08:05:24.242Z,66.56
2017-03-23T08:06:24.770Z,67.36
2017-03-23T08:07:25.308Z,67.60
2017-03-23T08:08:25.837Z,67.16
2017-03-23T08:09:26.369Z,67.31
2017-03-23T08:10:27.053Z,67.41
2017-03-23T08:11:27.435Z,68.60
2017-03-23T08:12:27.966Z,68.11
2017-03-23T08:13:28.494Z,68.63
2017-03-23T08:14:29.029Z,69.05
2017-03-23T08:15:29.567Z,67.98
2017-03-23T08:16:30.092Z,68.63
2017-03-23T08:17:30.625Z,68.04
2017-03-23T08:18:31.305Z,69.28
2017-03-23T08:19:31.691Z,68.47
2017-03-23T08:20:32.224Z,68.68
2017-03-23T08:21:32.756Z,68.55
2017-03-23T08:22:33.290Z,67.85
2017-03-23T08:23:33.823Z,68.19
2017-03-23T08:24:34.359Z,66.79
2017-03-23T08:25:34.898Z,66.84
2017-03-23T08:26:35.433Z,66.71
2017-03-23T08:27:35.979Z,66.22
2017-03-23T08:28:36.510Z,66.61
2017-03-23T08:29:37.043Z,67.70
2017-03-23T08:30:37.575Z,68.94
2017-03-23T08:31:38.108Z,67.31
2017-03-23T08:32:38.788Z,67.52
2017-03-23T08:33:39.175Z,67.41
2017-03-23T08:34:39.716Z,66.69
2017-03-23T08:35:40.244Z,67.10
2017-03-23T08:36:40.777Z,66.30
2017-03-23T08:37:41.753Z,65.68
2017-03-23T08:38:41.841Z,63.74
2017-03-23T08:39:42.385Z,64.70
2017-03-23T08:40:42.910Z,65.22
2017-03-23T08:41:43.448Z,64.62
2017-03-23T08:42:43.973Z,64.72
2017-03-23T08:43:44.506Z,65.70
2017-03-23T08:44:45.039Z,64.95
2017-03-23T08:45:45.574Z,66.58
2017-03-23T08:46:46.107Z,65.42
2017-03-23T08:47:46.631Z,66.09
2017-03-23T08:48:47.168Z,65.78
2017-03-23T08:49:47.704Z,66.01
2017-03-23T08:50:48.232Z,64.52
2017-03-23T08:51:48.765Z,67.46
2017-03-23T08:52:49.299Z,67.16
2017-03-23T08:53:49.838Z,65.50
2017-03-23T08:54:50.357Z,65.50
2017-03-23T08:55:50.892Z,66.50
2017-03-23T08:56:51.427Z,68.45
2017-03-23T08:57:51.964Z,65.08
2017-03-23T08:58:52.487Z,63.49
2017-03-23T08:59:53.018Z,63.13
2017-03-23T09:00:53.569Z,64.18
2017-03-23T09:01:54.235Z,64.38
2017-03-23T09:02:54.620Z,64.02
2017-03-23T09:03:55.316Z,63.95
2017-03-23T09:04:55.685Z,63.82
2017-03-23T09:05:56.217Z,64.02
2017-03-23T09:06:56.755Z,63.98
2017-03-23T09:07:57.290Z,62.25
2017-03-23T09:08:57.827Z,62.79
2017-03-23T09:09:58.379Z,63.02
2017-03-23T09:10:58.899Z,63.64
2017-03-23T09:11:59.586Z,62.40
2017-03-23T09:12:59.968Z,63.43
2017-03-23T09:14:00.500Z,63.43
2017-03-23T09:15:01.029Z,63.54
2017-03-23T09:16:01.567Z,63.92
2017-03-23T09:17:02.097Z,64.54
2017-03-23T09:18:02.636Z,64.67
2017-03-23T09:19:03.164Z,64.62
2017-03-23T09:20:03.695Z,63.95
2017-03-23T09:21:04.227Z,63.92
2017-03-23T09:22:04.759Z,65.08
2017-03-23T09:23:05.291Z,64.00
2017-03-23T09:24:05.829Z,64.15
2017-03-23T09:25:06.359Z,65.14
2017-03-23T09:26:06.891Z,65.70
2017-03-23T09:27:07.580Z,65.29
2017-03-23T09:28:07.965Z,64.54
2017-03-23T09:29:08.489Z,63.07
2017-03-23T09:30:09.020Z,61.76
2017-03-23T09:31:09.559Z,62.04
2017-03-23T09:32:10.242Z,63.07
2017-03-23T09:33:10.626Z,61.99
2017-03-23T09:34:11.163Z,62.58
2017-03-23T09:35:11.849Z,65.34
2017-03-23T09:36:12.221Z,63.66
2017-03-23T09:37:12.760Z,64.00
2017-03-23T09:38:13.285Z,62.10
2017-03-23T09:39:13.820Z,62.56
2017-03-23T09:40:14.347Z,61.61
2017-03-23T09:41:14.878Z,61.74
2017-03-23T09:42:15.414Z,62.53
2017-03-23T09:43:15.949Z,62.66
2017-03-23T09:44:16.483Z,61.69
2017-03-23T09:45:17.012Z,62.38
2017-03-23T09:46:17.544Z,62.99
2017-03-23T09:47:18.079Z,63.41
2017-03-23T09:48:18.612Z,62.43
2017-03-23T09:49:19.147Z,62.90
2017-03-23T09:50:19.684Z,62.35
2017-03-23T09:51:20.217Z,62.74
2017-03-23T09:52:20.752Z,61.56
2017-03-23T09:53:21.289Z,62.02
2017-03-23T09:54:21.815Z,63.05
2017-03-23T09:55:22.351Z,62.97
2017-03-23T09:56:22.883Z,64.31
2017-03-23T09:57:23.420Z,63.23
2017-03-23T09:58:23.951Z,61.14
2017-03-23T09:59:24.477Z,61.84
2017-03-23T10:00:25.013Z,62.90
2017-03-23T10:01:25.542Z,61.43
2017-03-23T10:02:26.076Z,62.07
2017-03-23T10:03:26.641Z,61.69
2017-03-23T10:04:27.141Z,61.86
2017-03-23T10:05:27.671Z,61.71
2017-03-23T10:06:28.209Z,62.48
2017-03-23T10:07:28.751Z,59.25
2017-03-23T10:08:29.285Z,60.07
2017-03-23T10:09:29.808Z,59.07
2017-03-23T10:10:30.373Z,59.22
2017-03-23T10:11:30.875Z,58.68
2017-03-23T10:12:31.400Z,59.63
2017-03-23T10:13:31.936Z,60.22
2017-03-23T10:14:32.465Z,58.40
2017-03-23T10:15:33.004Z,59.20
2017-03-23T10:16:33.533Z,58.17
2017-03-23T10:17:34.065Z,58.46
2017-03-23T10:18:34.597Z,58.89
2017-03-23T10:19:35.131Z,58.43
2017-03-23T10:20:35.670Z,58.25
2017-03-23T10:21:36.193Z,56.36
2017-03-23T10:22:36.724Z,56.57
2017-03-23T10:23:37.260Z,57.28
2017-03-23T10:24:37.796Z,57.87
2017-03-23T10:25:38.322Z,57.92
2017-03-23T10:26:38.858Z,58.61
2017-03-23T10:27:39.389Z,55.98
2017-03-23T10:28:39.917Z,55.88
2017-03-23T10:29:40.455Z,54.41
2017-03-23T10:30:40.995Z,53.47
2017-03-23T10:31:41.539Z,56.03
2017-03-23T10:32:42.074Z,52.48
2017-03-23T10:33:42.901Z,53.11
2017-03-23T10:34:43.140Z,52.37
2017-03-23T10:35:43.666Z,54.71
2017-03-23T10:36:44.201Z,54.45
2017-03-23T10:37:44.734Z,56.11
2017-03-23T10:38:45.268Z,57.95
2017-03-23T10:39:45.801Z,56.85
2017-03-23T10:40:46.328Z,59.86
2017-03-23T10:41:46.861Z,58.46
2017-03-23T10:42:47.389Z,56.21
2017-03-23T10:43:47.922Z,57.33
2017-03-23T10:44:48.452Z,56.36
2017-03-23T10:45:48.986Z,57.08
2017-03-23T10:46:49.517Z,58.89
2017-03-23T10:47:50.050Z,56.46
2017-03-23T10:48:50.587Z,54.12
2017-03-23T10:49:51.118Z,55.19
2017-03-23T10:50:51.656Z,53.90
2017-03-23T10:51:52.197Z,53.23
2017-03-23T10:52:52.726Z,52.63
2017-03-23T10:53:53.254Z,54.33
2017-03-23T10:54:53.786Z,54.58
2017-03-23T10:55:54.320Z,56.00
2017-03-23T10:56:54.852Z,54.58
2017-03-23T10:57:55.381Z,55.65
2017-03-23T10:58:55.913Z,55.65
2017-03-23T10:59:56.449Z,58.20
2017-03-23T11:00:56.980Z,55.32
2017-03-23T11:01:57.507Z,54.83
2017-03-23T11:02:58.039Z,56.72
2017-03-23T11:03:58.578Z,52.78
2017-03-23T11:04:59.104Z,54.81
2017-03-23T11:05:59.639Z,52.27
2017-03-23T11:07:00.170Z,50.15
2017-03-23T11:08:00.703Z,51.66
2017-03-23T11:09:01.238Z,50.35
2017-03-23T11:10:01.770Z,51.66
2017-03-23T11:11:02.306Z,52.60
2017-03-23T11:12:02.843Z,51.64
2017-03-23T11:13:03.379Z,49.95
2017-03-23T11:14:04.058Z,52.32
2017-03-23T11:15:04.457Z,50.18
2017-03-23T11:16:04.989Z,47.40
2017-03-23T11:17:05.519Z,49.14
2017-03-23T11:18:06.059Z,50.33
2017-03-23T11:19:06.587Z,49.27
2017-03-23T11:20:07.115Z,50.30
2017-03-23T11:21:07.649Z,49.69
2017-03-23T11:22:08.193Z,51.99
2017-03-23T11:23:08.710Z,52.78
2017-03-23T11:24:09.243Z,52.04
2017-03-23T11:25:09.777Z,52.75
2017-03-23T11:26:10.303Z,53.77
2017-03-23T11:27:10.839Z,52.17
2017-03-23T11:28:11.368Z,50.96
2017-03-23T11:29:11.904Z,50.10
2017-03-23T11:30:12.430Z,50.73
2017-03-23T11:31:12.962Z,52.10
2017-03-23T11:32:13.494Z,52.17
2017-03-23T11:33:14.026Z,52.93
2017-03-23T11:34:14.557Z,51.95
2017-03-23T11:35:15.098Z,50.05
2017-03-23T11:36:15.619Z,50.43
2017-03-23T11:37:16.151Z,50.33
2017-03-23T11:38:16.684Z,49.92
2017-03-23T11:39:17.223Z,48.89
2017-03-23T11:40:17.749Z,50.27
2017-03-23T11:41:18.287Z,50.22
2017-03-23T11:42:18.813Z,51.95
2017-03-23T11:43:19.345Z,54.20
2017-03-23T11:44:19.874Z,49.72
2017-03-23T11:45:20.407Z,51.31
2017-03-23T11:46:20.942Z,50.38
2017-03-23T11:47:21.479Z,50.83
2017-03-23T11:48:22.006Z,50.86
2017-03-23T11:49:22.527Z,51.74
2017-03-23T11:50:23.075Z,52.53
2017-03-23T11:51:23.609Z,50.45
2017-03-23T11:52:24.142Z,49.87
2017-03-23T11:53:24.666Z,49.27
2017-03-23T11:54:25.204Z,49.22
2017-03-23T11:55:25.737Z,50.02
2017-03-23T11:56:26.284Z,47.68
2017-03-23T11:57:26.956Z,47.43
2017-03-23T11:58:27.347Z,47.71
2017-03-23T11:59:27.881Z,47.76
2017-03-23T12:00:28.403Z,48.31
2017-03-23T12:01:28.948Z,48.79
2017-03-23T12:02:29.478Z,48.26
2017-03-23T12:03:30.006Z,50.07
2017-03-23T12:04:30.538Z,50.43
2017-03-23T12:05:31.075Z,50.83
2017-03-23T12:06:31.603Z,50.48
2017-03-23T12:07:32.134Z,49.09
2017-03-23T12:08:32.679Z,49.14
2017-03-23T12:09:33.210Z,50.05
2017-03-23T12:10:33.742Z,49.75
2017-03-23T12:11:34.282Z,49.72
2017-03-23T12:12:34.808Z,49.77
2017-03-23T12:13:35.338Z,50.58
2017-03-23T12:14:35.870Z,51.33
2017-03-23T12:15:36.405Z,50.68
2017-03-23T12:16:36.937Z,52.53
2017-03-23T12:17:37.472Z,53.87
2017-03-23T12:18:38.002Z,52.25
2017-03-23T12:19:38.532Z,51.69
2017-03-23T12:20:39.065Z,53.47
2017-03-23T12:21:39.742Z,52.15
2017-03-23T12:22:40.128Z,53.01
2017-03-23T12:23:40.656Z,53.03
2017-03-23T12:24:41.192Z,52.57
2017-03-23T12:25:41.734Z,54.12
2017-03-23T12:26:42.254Z,54.76
2017-03-23T12:27:42.936Z,52.40
2017-03-23T12:28:43.321Z,52.70
2017-03-23T12:29:43.851Z,51.95
2017-03-23T12:30:44.383Z,52.60
2017-03-23T12:31:44.922Z,53.16
2017-03-23T12:32:45.449Z,51.77
2017-03-23T12:33:45.983Z,52.48
2017-03-23T12:34:46.518Z,48.59
2017-03-23T12:35:47.053Z,48.28
2017-03-23T12:36:47.589Z,48.81
2017-03-23T12:37:48.127Z,50.88
2017-03-23T12:38:48.690Z,46.63
2017-03-23T12:39:49.189Z,45.80
2017-03-23T12:40:49.723Z,47.03
2017-03-23T12:41:50.259Z,46.40
2017-03-23T12:42:50.788Z,46.88
2017-03-23T12:43:51.326Z,46.35
2017-03-23T12:44:51.848Z,48.34
2017-03-23T12:45:52.383Z,49.06
2017-03-23T12:46:52.910Z,46.73
2017-03-23T12:47:53.444Z,50.71
2017-03-23T12:48:53.981Z,45.60
2017-03-23T12:49:54.526Z,48.72
2017-03-23T12:50:55.045Z,45.00
2017-03-23T12:51:55.724Z,45.80
2017-03-23T12:52:56.106Z,42.90
2017-03-23T12:53:56.645Z,44.39
2017-03-23T12:54:57.169Z,43.33
2017-03-23T12:55:57.700Z,44.20
2017-03-23T12:56:58.231Z,43.38
2017-03-23T12:57:58.774Z,43.00
2017-03-23T12:58:59.445Z,45.27